sensor_id;sensor_type;location;lat;lon;timestamp;P1;durP1;ratioP1;P2;durP2;ratioP2
60233;SDS011;49514;43.538;-5.708;2023-01-01T00:00:32;9.07;;;2.67;;
60233;SDS011;49514;43.538;-5.708;2023-01-01T00:02:59;9.02;;;2.72;;
60233;SDS011;49514;43.538;-5.708;2023-01-01T00:05:26;7.67;;;2.53;;
60233;SDS011;49514;43.538;-5.708;2023-01-01T00:07:52;10.30;;;2.80;;
60233;SDS011;49514;43.538;-5.708;2023-01-01T00:10:19;11.55;;;3.13;;
60233;SDS011;49514;43.538;-5.708;2023-01-01T00:12:55;10.67;;;3.20;;
60233;SDS011;49514;43.538;-5.708;2023-01-01T00:15:23;11.37;;;3.10;;
60233;SDS011;49514;43.538;-5.708;2023-01-01T00:17:51;7.00;;;2.70;;
60233;SDS011;49514;43.538;-5.708;2023-01-01T00:20:18;10.48;;;2.97;;
60233;SDS011;49514;43.538;-5.708;2023-01-01T00:22:45;7.63;;;2.53;;
60233;SDS011;49514;43.538;-5.708;2023-01-01T00:25:12;8.13;;;2.60;;
60233;SDS011;49514;43.538;-5.708;2023-01-01T00:27:42;10.90;;;2.40;;
60233;SDS011;49514;43.538;-5.708;2023-01-01T00:30:09;11.20;;;2.63;;
60233;SDS011;49514;43.538;-5.708;2023-01-01T00:32:37;10.63;;;2.90;;
60233;SDS011;49514;43.538;-5.708;2023-01-01T00:35:04;8.87;;;2.90;;
60233;SDS011;49514;43.538;-5.708;2023-01-01T00:37:32;11.77;;;3.10;;
60233;SDS011;49514;43.538;-5.708;2023-01-01T00:39:59;13.40;;;3.05;;
60233;SDS011;49514;43.538;-5.708;2023-01-01T00:42:26;11.45;;;3.35;;
60233;SDS011;49514;43.538;-5.708;2023-01-01T00:44:54;11.20;;;3.13;;
60233;SDS011;49514;43.538;-5.708;2023-01-01T00:47:20;16.17;;;3.88;;
60233;SDS011;49514;43.538;-5.708;2023-01-01T00:49:47;18.02;;;4.75;;
60233;SDS011;49514;43.538;-5.708;2023-01-01T00:52:14;15.80;;;4.40;;
60233;SDS011;49514;43.538;-5.708;2023-01-01T00:54:41;14.27;;;4.38;;
60233;SDS011;49514;43.538;-5.708;2023-01-01T00:57:08;15.85;;;4.40;;
60233;SDS011;49514;43.538;-5.708;2023-01-01T00:59:34;18.35;;;4.75;;
60233;SDS011;49514;43.538;-5.708;2023-01-01T01:02:01;19.58;;;4.68;;
60233;SDS011;49514;43.538;-5.708;2023-01-01T01:04:28;18.90;;;4.93;;
60233;SDS011;49514;43.538;-5.708;2023-01-01T01:06:55;17.35;;;4.22;;
60233;SDS011;49514;43.538;-5.708;2023-01-01T01:09:22;16.00;;;3.87;;
60233;SDS011;49514;43.538;-5.708;2023-01-01T01:11:49;17.48;;;4.00;;
60233;SDS011;49514;43.538;-5.708;2023-01-01T01:14:16;13.55;;;4.30;;
60233;SDS011;49514;43.538;-5.708;2023-01-01T01:16:42;11.57;;;3.20;;
60233;SDS011;49514;43.538;-5.708;2023-01-01T01:19:09;12.27;;;2.90;;
60233;SDS011;49514;43.538;-5.708;2023-01-01T01:21:40;11.00;;;2.30;;
60233;SDS011;49514;43.538;-5.708;2023-01-01T01:24:08;8.40;;;2.03;;
60233;SDS011;49514;43.538;-5.708;2023-01-01T01:26:35;7.95;;;2.10;;
60233;SDS011;49514;43.538;-5.708;2023-01-01T01:29:02;13.65;;;2.42;;
60233;SDS011;49514;43.538;-5.708;2023-01-01T01:31:29;8.82;;;2.20;;
60233;SDS011;49514;43.538;-5.708;2023-01-01T01:33:57;8.93;;;2.17;;
60233;SDS011;49514;43.538;-5.708;2023-01-01T01:36:24;6.55;;;1.75;;
60233;SDS011;49514;43.538;-5.708;2023-01-01T01:38:51;7.72;;;1.92;;
60233;SDS011;49514;43.538;-5.708;2023-01-01T01:41:20;7.47;;;1.92;;
60233;SDS011;49514;43.538;-5.708;2023-01-01T01:43:55;9.68;;;2.00;;
60233;SDS011;49514;43.538;-5.708;2023-01-01T01:49:04;9.40;;;2.00;;
60233;SDS011;49514;43.538;-5.708;2023-01-01T01:51:38;8.13;;;1.87;;
60233;SDS011;49514;43.538;-5.708;2023-01-01T01:54:07;10.23;;;2.10;;
60233;SDS011;49514;43.538;-5.708;2023-01-01T01:56:39;9.97;;;2.20;;
60233;SDS011;49514;43.538;-5.708;2023-01-01T01:59:16;8.73;;;2.20;;
60233;SDS011;49514;43.538;-5.708;2023-01-01T02:01:45;10.60;;;2.85;;
60233;SDS011;49514;43.538;-5.708;2023-01-01T02:04:11;7.47;;;1.88;;
60233;SDS011;49514;43.538;-5.708;2023-01-01T02:06:38;9.97;;;1.80;;
60233;SDS011;49514;43.538;-5.708;2023-01-01T02:09:06;5.45;;;1.40;;
60233;SDS011;49514;43.538;-5.708;2023-01-01T02:11:34;5.03;;;1.50;;
60233;SDS011;49514;43.538;-5.708;2023-01-01T02:14:01;5.35;;;1.45;;
60233;SDS011;49514;43.538;-5.708;2023-01-01T02:22:00;7.38;;;1.60;;
60233;SDS011;49514;43.538;-5.708;2023-01-01T02:27:52;6.13;;;1.60;;
60233;SDS011;49514;43.538;-5.708;2023-01-01T02:30:31;7.32;;;1.65;;
60233;SDS011;49514;43.538;-5.708;2023-01-01T02:33:00;6.18;;;1.70;;
60233;SDS011;49514;43.538;-5.708;2023-01-01T02:35:36;5.50;;;1.60;;
60233;SDS011;49514;43.538;-5.708;2023-01-01T02:38:09;6.95;;;2.03;;
60233;SDS011;49514;43.538;-5.708;2023-01-01T02:40:44;7.55;;;1.80;;
60233;SDS011;49514;43.538;-5.708;2023-01-01T02:43:16;6.55;;;1.60;;
60233;SDS011;49514;43.538;-5.708;2023-01-01T02:45:43;7.37;;;1.60;;
60233;SDS011;49514;43.538;-5.708;2023-01-01T02:53:40;10.10;;;1.95;;
60233;SDS011;49514;43.538;-5.708;2023-01-01T02:56:17;9.50;;;1.93;;
60233;SDS011;49514;43.538;-5.708;2023-01-01T02:59:04;11.02;;;2.20;;
60233;SDS011;49514;43.538;-5.708;2023-01-01T03:15:11;11.82;;;2.20;;
60233;SDS011;49514;43.538;-5.708;2023-01-01T03:23:17;7.67;;;1.67;;
60233;SDS011;49514;43.538;-5.708;2023-01-01T03:25:49;10.27;;;1.90;;
60233;SDS011;49514;43.538;-5.708;2023-01-01T03:28:19;12.70;;;2.28;;
60233;SDS011;49514;43.538;-5.708;2023-01-01T03:30:50;9.53;;;2.37;;
60233;SDS011;49514;43.538;-5.708;2023-01-01T03:33:53;19.27;;;2.83;;
60233;SDS011;49514;43.538;-5.708;2023-01-01T03:36:34;14.90;;;2.60;;
60233;SDS011;49514;43.538;-5.708;2023-01-01T03:39:10;12.10;;;2.63;;
60233;SDS011;49514;43.538;-5.708;2023-01-01T03:41:57;14.37;;;2.97;;
60233;SDS011;49514;43.538;-5.708;2023-01-01T03:47:42;12.33;;;3.40;;
60233;SDS011;49514;43.538;-5.708;2023-01-01T03:50:09;11.00;;;2.95;;
60233;SDS011;49514;43.538;-5.708;2023-01-01T03:57:55;13.13;;;2.80;;
60233;SDS011;49514;43.538;-5.708;2023-01-01T04:00:42;12.57;;;2.50;;
60233;SDS011;49514;43.538;-5.708;2023-01-01T04:03:23;12.85;;;2.58;;
60233;SDS011;49514;43.538;-5.708;2023-01-01T04:05:52;13.38;;;2.60;;
60233;SDS011;49514;43.538;-5.708;2023-01-01T04:08:19;17.23;;;2.80;;
60233;SDS011;49514;43.538;-5.708;2023-01-01T04:10:47;14.85;;;2.72;;
60233;SDS011;49514;43.538;-5.708;2023-01-01T04:13:20;14.68;;;2.63;;
60233;SDS011;49514;43.538;-5.708;2023-01-01T04:15:46;14.40;;;2.20;;
60233;SDS011;49514;43.538;-5.708;2023-01-01T04:18:13;13.80;;;2.50;;
60233;SDS011;49514;43.538;-5.708;2023-01-01T04:20:39;14.80;;;2.55;;
60233;SDS011;49514;43.538;-5.708;2023-01-01T04:23:06;16.02;;;2.88;;
60233;SDS011;49514;43.538;-5.708;2023-01-01T04:25:32;14.25;;;2.20;;
60233;SDS011;49514;43.538;-5.708;2023-01-01T04:27:59;15.02;;;2.65;;
60233;SDS011;49514;43.538;-5.708;2023-01-01T04:30:28;12.98;;;2.47;;
60233;SDS011;49514;43.538;-5.708;2023-01-01T04:32:55;12.90;;;2.55;;
60233;SDS011;49514;43.538;-5.708;2023-01-01T04:35:21;12.45;;;2.55;;
60233;SDS011;49514;43.538;-5.708;2023-01-01T04:37:48;12.57;;;2.37;;
60233;SDS011;49514;43.538;-5.708;2023-01-01T04:40:14;14.82;;;2.88;;
60233;SDS011;49514;43.538;-5.708;2023-01-01T04:42:41;13.20;;;2.80;;
60233;SDS011;49514;43.538;-5.708;2023-01-01T04:45:08;12.32;;;2.42;;
60233;SDS011;49514;43.538;-5.708;2023-01-01T04:47:37;13.48;;;2.65;;
60233;SDS011;49514;43.538;-5.708;2023-01-01T04:50:04;14.00;;;2.55;;
60233;SDS011;49514;43.538;-5.708;2023-01-01T04:52:30;12.80;;;2.35;;
60233;SDS011;49514;43.538;-5.708;2023-01-01T04:54:57;17.43;;;3.07;;
60233;SDS011;49514;43.538;-5.708;2023-01-01T04:57:24;16.33;;;2.92;;
60233;SDS011;49514;43.538;-5.708;2023-01-01T04:59:50;15.57;;;3.10;;
60233;SDS011;49514;43.538;-5.708;2023-01-01T05:02:17;17.63;;;3.13;;
60233;SDS011;49514;43.538;-5.708;2023-01-01T05:04:43;13.20;;;2.60;;
60233;SDS011;49514;43.538;-5.708;2023-01-01T05:07:10;19.58;;;3.42;;
60233;SDS011;49514;43.538;-5.708;2023-01-01T05:09:36;15.60;;;2.72;;
60233;SDS011;49514;43.538;-5.708;2023-01-01T05:12:03;16.20;;;3.07;;
60233;SDS011;49514;43.538;-5.708;2023-01-01T05:14:30;12.80;;;2.47;;
60233;SDS011;49514;43.538;-5.708;2023-01-01T05:16:56;14.70;;;2.70;;
60233;SDS011;49514;43.538;-5.708;2023-01-01T05:19:23;17.52;;;2.83;;
60233;SDS011;49514;43.538;-5.708;2023-01-01T05:21:50;10.82;;;2.15;;
60233;SDS011;49514;43.538;-5.708;2023-01-01T05:24:16;14.63;;;2.83;;
60233;SDS011;49514;43.538;-5.708;2023-01-01T05:26:43;16.67;;;3.20;;
60233;SDS011;49514;43.538;-5.708;2023-01-01T05:29:10;15.80;;;2.75;;
60233;SDS011;49514;43.538;-5.708;2023-01-01T05:31:37;19.13;;;3.20;;
60233;SDS011;49514;43.538;-5.708;2023-01-01T05:34:03;15.75;;;3.13;;
60233;SDS011;49514;43.538;-5.708;2023-01-01T05:36:34;16.42;;;3.10;;
60233;SDS011;49514;43.538;-5.708;2023-01-01T05:39:04;18.20;;;3.47;;
60233;SDS011;49514;43.538;-5.708;2023-01-01T05:41:31;18.33;;;3.00;;
60233;SDS011;49514;43.538;-5.708;2023-01-01T05:44:01;15.40;;;3.10;;
60233;SDS011;49514;43.538;-5.708;2023-01-01T05:46:29;16.65;;;3.10;;
60233;SDS011;49514;43.538;-5.708;2023-01-01T05:48:55;17.40;;;3.30;;
60233;SDS011;49514;43.538;-5.708;2023-01-01T05:51:23;13.65;;;2.92;;
60233;SDS011;49514;43.538;-5.708;2023-01-01T05:53:54;16.40;;;3.40;;
60233;SDS011;49514;43.538;-5.708;2023-01-01T05:56:21;19.58;;;3.63;;
60233;SDS011;49514;43.538;-5.708;2023-01-01T05:58:48;15.73;;;3.45;;
60233;SDS011;49514;43.538;-5.708;2023-01-01T06:01:19;12.93;;;3.00;;
60233;SDS011;49514;43.538;-5.708;2023-01-01T06:03:48;16.85;;;3.10;;
60233;SDS011;49514;43.538;-5.708;2023-01-01T06:06:16;17.35;;;3.25;;
60233;SDS011;49514;43.538;-5.708;2023-01-01T06:08:49;18.20;;;3.47;;
60233;SDS011;49514;43.538;-5.708;2023-01-01T06:11:16;12.82;;;3.15;;
60233;SDS011;49514;43.538;-5.708;2023-01-01T06:13:43;14.77;;;3.42;;
60233;SDS011;49514;43.538;-5.708;2023-01-01T06:16:10;16.30;;;3.60;;
60233;SDS011;49514;43.538;-5.708;2023-01-01T06:18:37;14.23;;;3.22;;
60233;SDS011;49514;43.538;-5.708;2023-01-01T06:23:35;17.08;;;3.13;;
60233;SDS011;49514;43.538;-5.708;2023-01-01T06:26:06;15.13;;;3.10;;
60233;SDS011;49514;43.538;-5.708;2023-01-01T06:28:34;15.32;;;3.10;;
60233;SDS011;49514;43.538;-5.708;2023-01-01T06:31:02;15.57;;;3.47;;
60233;SDS011;49514;43.538;-5.708;2023-01-01T06:33:29;11.27;;;3.13;;
60233;SDS011;49514;43.538;-5.708;2023-01-01T06:35:56;12.33;;;3.00;;
60233;SDS011;49514;43.538;-5.708;2023-01-01T06:38:23;14.07;;;3.07;;
60233;SDS011;49514;43.538;-5.708;2023-01-01T06:40:56;17.73;;;3.75;;
60233;SDS011;49514;43.538;-5.708;2023-01-01T06:43:24;14.70;;;3.13;;
60233;SDS011;49514;43.538;-5.708;2023-01-01T06:46:01;16.48;;;3.78;;
60233;SDS011;49514;43.538;-5.708;2023-01-01T06:48:55;19.13;;;3.78;;
60233;SDS011;49514;43.538;-5.708;2023-01-01T06:51:24;16.33;;;3.58;;
60233;SDS011;49514;43.538;-5.708;2023-01-01T06:53:52;15.30;;;3.33;;
60233;SDS011;49514;43.538;-5.708;2023-01-01T06:56:20;15.77;;;3.53;;
60233;SDS011;49514;43.538;-5.708;2023-01-01T06:58:48;24.27;;;4.18;;
60233;SDS011;49514;43.538;-5.708;2023-01-01T07:01:16;20.13;;;3.43;;
60233;SDS011;49514;43.538;-5.708;2023-01-01T07:03:57;17.88;;;3.42;;
60233;SDS011;49514;43.538;-5.708;2023-01-01T07:06:25;21.65;;;4.25;;
60233;SDS011;49514;43.538;-5.708;2023-01-01T07:08:53;17.85;;;3.80;;
60233;SDS011;49514;43.538;-5.708;2023-01-01T07:11:20;23.05;;;4.00;;
60233;SDS011;49514;43.538;-5.708;2023-01-01T07:13:47;18.55;;;4.13;;
60233;SDS011;49514;43.538;-5.708;2023-01-01T07:16:14;20.20;;;3.88;;
60233;SDS011;49514;43.538;-5.708;2023-01-01T07:18:41;25.30;;;4.38;;
60233;SDS011;49514;43.538;-5.708;2023-01-01T07:23:53;19.92;;;4.47;;
60233;SDS011;49514;43.538;-5.708;2023-01-01T07:26:26;24.98;;;4.50;;
60233;SDS011;49514;43.538;-5.708;2023-01-01T07:28:54;21.13;;;4.22;;
60233;SDS011;49514;43.538;-5.708;2023-01-01T07:31:21;21.45;;;4.18;;
60233;SDS011;49514;43.538;-5.708;2023-01-01T07:33:47;24.80;;;4.68;;
60233;SDS011;49514;43.538;-5.708;2023-01-01T07:36:15;19.80;;;4.40;;
60233;SDS011;49514;43.538;-5.708;2023-01-01T07:38:42;20.60;;;4.05;;
60233;SDS011;49514;43.538;-5.708;2023-01-01T07:41:09;20.13;;;3.50;;
60233;SDS011;49514;43.538;-5.708;2023-01-01T07:43:36;13.68;;;3.10;;
60233;SDS011;49514;43.538;-5.708;2023-01-01T07:46:02;15.38;;;3.30;;
60233;SDS011;49514;43.538;-5.708;2023-01-01T07:48:29;15.27;;;3.25;;
60233;SDS011;49514;43.538;-5.708;2023-01-01T07:50:56;13.10;;;3.43;;
60233;SDS011;49514;43.538;-5.708;2023-01-01T07:53:23;10.02;;;2.80;;
60233;SDS011;49514;43.538;-5.708;2023-01-01T07:55:49;13.52;;;3.10;;
60233;SDS011;49514;43.538;-5.708;2023-01-01T07:58:17;11.93;;;2.80;;
60233;SDS011;49514;43.538;-5.708;2023-01-01T08:00:46;13.20;;;3.25;;
60233;SDS011;49514;43.538;-5.708;2023-01-01T08:03:13;13.95;;;3.15;;
60233;SDS011;49514;43.538;-5.708;2023-01-01T08:05:41;11.57;;;3.10;;
60233;SDS011;49514;43.538;-5.708;2023-01-01T08:08:08;13.80;;;3.20;;
60233;SDS011;49514;43.538;-5.708;2023-01-01T08:10:36;10.77;;;3.00;;
60233;SDS011;49514;43.538;-5.708;2023-01-01T08:13:03;13.47;;;3.50;;
60233;SDS011;49514;43.538;-5.708;2023-01-01T08:15:32;9.77;;;3.23;;
60233;SDS011;49514;43.538;-5.708;2023-01-01T08:18:00;12.33;;;3.20;;
60233;SDS011;49514;43.538;-5.708;2023-01-01T08:20:29;11.75;;;2.95;;
60233;SDS011;49514;43.538;-5.708;2023-01-01T08:22:57;12.90;;;3.13;;
60233;SDS011;49514;43.538;-5.708;2023-01-01T08:25:24;12.32;;;3.55;;
60233;SDS011;49514;43.538;-5.708;2023-01-01T08:27:51;15.30;;;3.88;;
60233;SDS011;49514;43.538;-5.708;2023-01-01T08:30:17;13.77;;;3.70;;
60233;SDS011;49514;43.538;-5.708;2023-01-01T08:32:44;13.02;;;3.55;;
60233;SDS011;49514;43.538;-5.708;2023-01-01T08:35:11;14.18;;;3.42;;
60233;SDS011;49514;43.538;-5.708;2023-01-01T08:37:38;16.88;;;3.53;;
60233;SDS011;49514;43.538;-5.708;2023-01-01T08:40:04;12.40;;;3.30;;
60233;SDS011;49514;43.538;-5.708;2023-01-01T08:42:32;15.75;;;4.00;;
60233;SDS011;49514;43.538;-5.708;2023-01-01T08:44:58;24.00;;;4.78;;
60233;SDS011;49514;43.538;-5.708;2023-01-01T08:47:25;36.67;;;6.70;;
60233;SDS011;49514;43.538;-5.708;2023-01-01T08:49:52;32.37;;;5.33;;
60233;SDS011;49514;43.538;-5.708;2023-01-01T08:52:19;30.47;;;5.53;;
60233;SDS011;49514;43.538;-5.708;2023-01-01T08:54:47;45.30;;;6.47;;
60233;SDS011;49514;43.538;-5.708;2023-01-01T08:57:14;46.75;;;7.93;;
60233;SDS011;49514;43.538;-5.708;2023-01-01T08:59:41;47.97;;;7.18;;
60233;SDS011;49514;43.538;-5.708;2023-01-01T09:02:08;46.50;;;6.97;;
60233;SDS011;49514;43.538;-5.708;2023-01-01T09:04:36;49.83;;;7.75;;
60233;SDS011;49514;43.538;-5.708;2023-01-01T09:07:03;54.63;;;8.67;;
60233;SDS011;49514;43.538;-5.708;2023-01-01T09:09:29;72.72;;;8.50;;
60233;SDS011;49514;43.538;-5.708;2023-01-01T09:11:56;77.82;;;10.32;;
60233;SDS011;49514;43.538;-5.708;2023-01-01T09:14:31;79.07;;;10.33;;
60233;SDS011;49514;43.538;-5.708;2023-01-01T09:16:58;53.28;;;7.90;;
60233;SDS011;49514;43.538;-5.708;2023-01-01T09:19:26;57.22;;;7.82;;
60233;SDS011;49514;43.538;-5.708;2023-01-01T10:57:15;18.15;;;3.63;;
60233;SDS011;49514;43.538;-5.708;2023-01-01T11:00:42;18.50;;;3.22;;
60233;SDS011;49514;43.538;-5.708;2023-01-01T11:06:32;15.20;;;4.18;;
60233;SDS011;49514;43.538;-5.708;2023-01-01T11:08:54;20.30;;;4.53;;
60233;SDS011;49514;43.538;-5.708;2023-01-01T11:11:25;20.25;;;4.40;;
60233;SDS011;49514;43.538;-5.708;2023-01-01T11:14:13;25.40;;;5.00;;
60233;SDS011;49514;43.538;-5.708;2023-01-01T11:17:08;15.57;;;4.25;;
60233;SDS011;49514;43.538;-5.708;2023-01-01T11:19:36;16.93;;;4.57;;
60233;SDS011;49514;43.538;-5.708;2023-01-01T11:22:05;19.38;;;4.45;;
60233;SDS011;49514;43.538;-5.708;2023-01-01T11:24:33;16.88;;;4.60;;
60233;SDS011;49514;43.538;-5.708;2023-01-01T11:29:47;20.52;;;5.50;;
60233;SDS011;49514;43.538;-5.708;2023-01-01T11:32:20;20.13;;;4.30;;
60233;SDS011;49514;43.538;-5.708;2023-01-01T11:34:59;23.23;;;5.70;;
60233;SDS011;49514;43.538;-5.708;2023-01-01T11:37:34;16.58;;;4.07;;
60233;SDS011;49514;43.538;-5.708;2023-01-01T11:40:04;22.50;;;4.80;;
60233;SDS011;49514;43.538;-5.708;2023-01-01T11:42:42;15.60;;;3.40;;
60233;SDS011;49514;43.538;-5.708;2023-01-01T11:45:15;14.77;;;4.00;;
60233;SDS011;49514;43.538;-5.708;2023-01-01T11:47:55;15.05;;;3.85;;
60233;SDS011;49514;43.538;-5.708;2023-01-01T11:50:38;18.10;;;4.05;;
60233;SDS011;49514;43.538;-5.708;2023-01-01T11:53:17;16.83;;;3.97;;
60233;SDS011;49514;43.538;-5.708;2023-01-01T11:55:48;18.65;;;4.60;;
60233;SDS011;49514;43.538;-5.708;2023-01-01T12:03:52;12.90;;;4.07;;
60233;SDS011;49514;43.538;-5.708;2023-01-01T12:11:40;15.07;;;4.15;;
60233;SDS011;49514;43.538;-5.708;2023-01-01T12:17:01;16.60;;;4.22;;
60233;SDS011;49514;43.538;-5.708;2023-01-01T12:22:30;15.85;;;4.03;;
60233;SDS011;49514;43.538;-5.708;2023-01-01T12:24:57;15.25;;;3.50;;
60233;SDS011;49514;43.538;-5.708;2023-01-01T12:30:07;12.70;;;3.40;;
60233;SDS011;49514;43.538;-5.708;2023-01-01T12:41:07;11.18;;;2.92;;
60233;SDS011;49514;43.538;-5.708;2023-01-01T12:58:25;12.83;;;3.00;;
60233;SDS011;49514;43.538;-5.708;2023-01-01T13:01:34;17.88;;;4.03;;
60233;SDS011;49514;43.538;-5.708;2023-01-01T13:04:13;11.73;;;3.35;;
60233;SDS011;49514;43.538;-5.708;2023-01-01T13:06:46;13.07;;;3.65;;
60233;SDS011;49514;43.538;-5.708;2023-01-01T13:09:23;16.02;;;3.80;;
60233;SDS011;49514;43.538;-5.708;2023-01-01T13:11:54;14.73;;;3.80;;
60233;SDS011;49514;43.538;-5.708;2023-01-01T13:14:38;12.23;;;3.37;;
60233;SDS011;49514;43.538;-5.708;2023-01-01T13:19:58;13.13;;;3.40;;
60233;SDS011;49514;43.538;-5.708;2023-01-01T13:36:28;10.55;;;3.20;;
60233;SDS011;49514;43.538;-5.708;2023-01-01T13:38:57;10.70;;;3.33;;
60233;SDS011;49514;43.538;-5.708;2023-01-01T13:43:53;13.55;;;3.60;;
60233;SDS011;49514;43.538;-5.708;2023-01-01T14:00:22;13.18;;;3.80;;
60233;SDS011;49514;43.538;-5.708;2023-01-01T14:03:09;11.43;;;3.35;;
60233;SDS011;49514;43.538;-5.708;2023-01-01T14:05:50;12.35;;;3.15;;
60233;SDS011;49514;43.538;-5.708;2023-01-01T14:08:29;9.93;;;3.42;;
60233;SDS011;49514;43.538;-5.708;2023-01-01T14:10:57;11.73;;;3.38;;
60233;SDS011;49514;43.538;-5.708;2023-01-01T14:13:27;13.48;;;3.50;;
60233;SDS011;49514;43.538;-5.708;2023-01-01T14:16:01;13.68;;;3.10;;
60233;SDS011;49514;43.538;-5.708;2023-01-01T14:18:37;14.45;;;3.22;;
60233;SDS011;49514;43.538;-5.708;2023-01-01T14:21:10;18.67;;;3.60;;
60233;SDS011;49514;43.538;-5.708;2023-01-01T14:23:43;16.25;;;3.40;;
60233;SDS011;49514;43.538;-5.708;2023-01-01T14:26:31;16.88;;;3.35;;
60233;SDS011;49514;43.538;-5.708;2023-01-01T14:29:00;10.00;;;2.85;;
60233;SDS011;49514;43.538;-5.708;2023-01-01T14:31:49;14.33;;;3.13;;
60233;SDS011;49514;43.538;-5.708;2023-01-01T14:34:36;12.43;;;2.88;;
60233;SDS011;49514;43.538;-5.708;2023-01-01T14:37:03;9.32;;;3.20;;
60233;SDS011;49514;43.538;-5.708;2023-01-01T14:39:44;8.13;;;2.80;;
60233;SDS011;49514;43.538;-5.708;2023-01-01T14:42:12;10.68;;;3.10;;
60233;SDS011;49514;43.538;-5.708;2023-01-01T14:44:45;15.53;;;7.03;;
60233;SDS011;49514;43.538;-5.708;2023-01-01T14:47:22;13.32;;;4.43;;
60233;SDS011;49514;43.538;-5.708;2023-01-01T14:49:52;13.03;;;4.20;;
60233;SDS011;49514;43.538;-5.708;2023-01-01T14:52:26;11.27;;;3.38;;
60233;SDS011;49514;43.538;-5.708;2023-01-01T14:54:56;10.52;;;2.85;;
60233;SDS011;49514;43.538;-5.708;2023-01-01T14:57:29;15.68;;;3.17;;
60233;SDS011;49514;43.538;-5.708;2023-01-01T14:59:56;14.70;;;3.70;;
60233;SDS011;49514;43.538;-5.708;2023-01-01T15:02:27;14.98;;;3.38;;
60233;SDS011;49514;43.538;-5.708;2023-01-01T15:04:58;15.73;;;3.90;;
60233;SDS011;49514;43.538;-5.708;2023-01-01T15:07:39;16.05;;;3.35;;
60233;SDS011;49514;43.538;-5.708;2023-01-01T15:10:08;12.65;;;2.95;;
60233;SDS011;49514;43.538;-5.708;2023-01-01T15:12:38;7.68;;;2.22;;
60233;SDS011;49514;43.538;-5.708;2023-01-01T15:15:31;8.05;;;1.75;;
60233;SDS011;49514;43.538;-5.708;2023-01-01T15:17:54;10.27;;;1.70;;
60233;SDS011;49514;43.538;-5.708;2023-01-01T15:20:21;8.40;;;2.08;;
60233;SDS011;49514;43.538;-5.708;2023-01-01T15:22:50;6.95;;;1.48;;
60233;SDS011;49514;43.538;-5.708;2023-01-01T15:25:18;6.32;;;1.05;;
60233;SDS011;49514;43.538;-5.708;2023-01-01T15:27:47;6.43;;;1.30;;
60233;SDS011;49514;43.538;-5.708;2023-01-01T15:30:24;6.78;;;1.08;;
60233;SDS011;49514;43.538;-5.708;2023-01-01T15:32:53;7.37;;;1.00;;
60233;SDS011;49514;43.538;-5.708;2023-01-01T15:37:48;5.18;;;0.82;;
60233;SDS011;49514;43.538;-5.708;2023-01-01T15:43:32;6.15;;;1.00;;
60233;SDS011;49514;43.538;-5.708;2023-01-01T15:45:39;4.53;;;0.60;;
60233;SDS011;49514;43.538;-5.708;2023-01-01T15:50:35;3.53;;;0.70;;
60233;SDS011;49514;43.538;-5.708;2023-01-01T15:55:45;5.03;;;0.75;;
60233;SDS011;49514;43.538;-5.708;2023-01-01T16:01:09;5.13;;;0.93;;
60233;SDS011;49514;43.538;-5.708;2023-01-01T16:03:38;6.60;;;0.90;;
60233;SDS011;49514;43.538;-5.708;2023-01-01T16:06:07;4.97;;;;;
60233;SDS011;49514;43.538;-5.708;2023-01-01T16:08:41;4.90;;;0.80;;
60233;SDS011;49514;43.538;-5.708;2023-01-01T16:11:08;5.97;;;0.90;;
60233;SDS011;49514;43.538;-5.708;2023-01-01T16:13:35;6.40;;;1.10;;
60233;SDS011;49514;43.538;-5.708;2023-01-01T16:16:02;5.07;;;1.10;;
60233;SDS011;49514;43.538;-5.708;2023-01-01T16:18:34;9.17;;;1.40;;
60233;SDS011;49514;43.538;-5.708;2023-01-01T16:21:03;6.90;;;1.50;;
60233;SDS011;49514;43.538;-5.708;2023-01-01T16:23:30;4.25;;;0.70;;
60233;SDS011;49514;43.538;-5.708;2023-01-01T16:25:58;5.28;;;0.77;;
60233;SDS011;49514;43.538;-5.708;2023-01-01T16:28:25;3.53;;;0.60;;
60233;SDS011;49514;43.538;-5.708;2023-01-01T16:30:52;2.73;;;0.67;;
60233;SDS011;49514;43.538;-5.708;2023-01-01T16:33:19;5.03;;;0.70;;
60233;SDS011;49514;43.538;-5.708;2023-01-01T16:35:47;4.43;;;0.75;;
60233;SDS011;49514;43.538;-5.708;2023-01-01T16:38:14;4.00;;;0.80;;
60233;SDS011;49514;43.538;-5.708;2023-01-01T16:40:41;5.13;;;0.60;;
60233;SDS011;49514;43.538;-5.708;2023-01-01T16:43:12;4.38;;;0.80;;
60233;SDS011;49514;43.538;-5.708;2023-01-01T16:45:42;3.67;;;0.70;;
60233;SDS011;49514;43.538;-5.708;2023-01-01T16:48:11;5.57;;;0.82;;
60233;SDS011;49514;43.538;-5.708;2023-01-01T16:50:38;2.65;;;0.55;;
60233;SDS011;49514;43.538;-5.708;2023-01-01T16:53:05;2.80;;;0.50;;
60233;SDS011;49514;43.538;-5.708;2023-01-01T16:55:32;4.47;;;0.90;;
60233;SDS011;49514;43.538;-5.708;2023-01-01T16:57:59;4.20;;;0.80;;
60233;SDS011;49514;43.538;-5.708;2023-01-01T17:00:25;4.10;;;0.80;;
60233;SDS011;49514;43.538;-5.708;2023-01-01T17:02:52;5.33;;;1.00;;
60233;SDS011;49514;43.538;-5.708;2023-01-01T17:05:19;5.83;;;0.93;;
60233;SDS011;49514;43.538;-5.708;2023-01-01T17:07:46;6.53;;;1.03;;
60233;SDS011;49514;43.538;-5.708;2023-01-01T17:10:15;4.90;;;0.80;;
60233;SDS011;49514;43.538;-5.708;2023-01-01T17:12:41;6.47;;;0.80;;
60233;SDS011;49514;43.538;-5.708;2023-01-01T17:15:08;6.77;;;0.87;;
60233;SDS011;49514;43.538;-5.708;2023-01-01T17:17:35;4.90;;;0.97;;
60233;SDS011;49514;43.538;-5.708;2023-01-01T17:20:03;6.22;;;0.90;;
60233;SDS011;49514;43.538;-5.708;2023-01-01T17:22:31;5.03;;;0.90;;
60233;SDS011;49514;43.538;-5.708;2023-01-01T17:24:58;5.67;;;1.00;;
60233;SDS011;49514;43.538;-5.708;2023-01-01T17:27:26;5.57;;;0.90;;
60233;SDS011;49514;43.538;-5.708;2023-01-01T17:29:53;5.32;;;0.85;;
60233;SDS011;49514;43.538;-5.708;2023-01-01T17:32:19;4.03;;;0.70;;
60233;SDS011;49514;43.538;-5.708;2023-01-01T17:34:46;4.05;;;0.80;;
60233;SDS011;49514;43.538;-5.708;2023-01-01T17:37:13;6.63;;;0.80;;
60233;SDS011;49514;43.538;-5.708;2023-01-01T17:39:39;3.17;;;0.60;;
60233;SDS011;49514;43.538;-5.708;2023-01-01T17:42:08;4.72;;;0.70;;
60233;SDS011;49514;43.538;-5.708;2023-01-01T17:44:34;4.75;;;0.85;;
60233;SDS011;49514;43.538;-5.708;2023-01-01T17:47:02;3.97;;;0.77;;
60233;SDS011;49514;43.538;-5.708;2023-01-01T17:49:29;4.33;;;0.60;;
60233;SDS011;49514;43.538;-5.708;2023-01-01T17:51:56;4.88;;;0.90;;
60233;SDS011;49514;43.538;-5.708;2023-01-01T17:54:23;1.83;;;0.50;;
60233;SDS011;49514;43.538;-5.708;2023-01-01T17:56:52;3.83;;;0.75;;
60233;SDS011;49514;43.538;-5.708;2023-01-01T17:59:18;5.10;;;0.82;;
60233;SDS011;49514;43.538;-5.708;2023-01-01T18:01:46;4.57;;;1.00;;
60233;SDS011;49514;43.538;-5.708;2023-01-01T18:04:12;3.78;;;0.88;;
60233;SDS011;49514;43.538;-5.708;2023-01-01T18:06:39;2.47;;;0.60;;
60233;SDS011;49514;43.538;-5.708;2023-01-01T18:09:07;4.40;;;1.00;;
60233;SDS011;49514;43.538;-5.708;2023-01-01T18:11:36;3.45;;;0.93;;
60233;SDS011;49514;43.538;-5.708;2023-01-01T18:14:03;4.55;;;0.90;;
60233;SDS011;49514;43.538;-5.708;2023-01-01T18:16:31;5.47;;;0.95;;
60233;SDS011;49514;43.538;-5.708;2023-01-01T18:19:00;4.80;;;1.10;;
60233;SDS011;49514;43.538;-5.708;2023-01-01T18:21:28;3.40;;;0.85;;
60233;SDS011;49514;43.538;-5.708;2023-01-01T18:23:57;5.13;;;1.23;;
60233;SDS011;49514;43.538;-5.708;2023-01-01T18:26:25;4.00;;;0.80;;
60233;SDS011;49514;43.538;-5.708;2023-01-01T18:28:55;4.50;;;1.00;;
60233;SDS011;49514;43.538;-5.708;2023-01-01T18:31:24;4.20;;;0.77;;
60233;SDS011;49514;43.538;-5.708;2023-01-01T18:33:52;3.22;;;0.65;;
60233;SDS011;49514;43.538;-5.708;2023-01-01T18:36:21;4.07;;;0.98;;
60233;SDS011;49514;43.538;-5.708;2023-01-01T18:38:54;5.38;;;1.13;;
60233;SDS011;49514;43.538;-5.708;2023-01-01T18:44:20;4.37;;;0.80;;